createdAt,value
2018-09-28T00:02:15.959Z,6.70
2018-09-28T00:07:10.873Z,6.20
2018-09-28T00:12:05.691Z,6.07
2018-09-28T00:17:00.917Z,6.77
2018-09-28T00:21:55.752Z,6.10
2018-09-28T00:26:50.594Z,7.23
2018-09-28T00:31:45.440Z,6.67
2018-09-28T00:36:40.239Z,6.40
2018-09-28T00:41:35.102Z,6.20
2018-09-28T00:46:30.026Z,6.50
2018-09-28T00:51:24.987Z,6.00
2018-09-28T00:56:19.860Z,5.27
2018-09-28T01:01:14.774Z,5.97
2018-09-28T01:06:09.627Z,5.53
2018-09-28T01:11:05.336Z,5.93
2018-09-28T01:16:00.533Z,5.40
2018-09-28T01:20:55.418Z,5.37
2018-09-28T01:25:50.224Z,6.37
2018-09-28T01:30:45.023Z,5.90
2018-09-28T01:35:39.843Z,5.90
2018-09-28T01:40:34.672Z,5.47
2018-09-28T01:45:29.466Z,6.43
2018-09-28T01:50:24.393Z,5.50
2018-09-28T01:55:19.814Z,5.07
2018-09-28T02:00:14.604Z,5.40
2018-09-28T02:05:09.552Z,5.03
2018-09-28T02:10:04.429Z,4.80
2018-09-28T02:14:59.280Z,5.20
2018-09-28T02:19:54.072Z,5.63
2018-09-28T02:24:48.929Z,6.10
2018-09-28T02:29:43.721Z,6.20
2018-09-28T02:34:38.573Z,5.87
2018-09-28T02:39:33.470Z,6.00
2018-09-28T02:44:28.384Z,5.93
2018-09-28T02:49:23.197Z,6.27
2018-09-28T02:54:18.098Z,5.67
2018-09-28T02:59:12.888Z,5.60
2018-09-28T03:04:07.769Z,6.17
2018-09-28T03:09:02.670Z,5.80
2018-09-28T03:13:57.513Z,5.93
2018-09-28T03:18:52.997Z,6.07
2018-09-28T03:23:47.795Z,6.40
2018-09-28T03:28:42.578Z,6.70
2018-09-28T03:33:37.381Z,6.53
2018-09-28T03:38:32.226Z,6.80
2018-09-28T03:43:27.010Z,5.90
2018-09-28T03:48:21.821Z,6.87
2018-09-28T03:53:16.623Z,6.73
2018-09-28T03:58:11.472Z,6.50
2018-09-28T04:03:06.399Z,6.70
2018-09-28T04:08:01.303Z,6.77
2018-09-28T04:12:56.128Z,6.60
2018-09-28T04:17:50.954Z,7.20
2018-09-28T04:22:46.496Z,8.00
2018-09-28T04:27:41.346Z,7.27
2018-09-28T04:32:36.215Z,6.87
2018-09-28T04:37:31.012Z,7.27
2018-09-28T04:42:25.771Z,6.37
2018-09-28T04:47:20.664Z,7.27
2018-09-28T04:52:15.582Z,7.60
2018-09-28T04:57:10.350Z,7.13
2018-09-28T05:02:05.429Z,7.07
2018-09-28T05:07:00.262Z,7.07
2018-09-28T05:11:55.131Z,7.17
2018-09-28T05:16:49.986Z,7.40
2018-09-28T05:21:44.899Z,7.90
2018-09-28T05:26:39.837Z,7.47
2018-09-28T05:31:34.718Z,8.07
2018-09-28T05:36:29.532Z,8.07
2018-09-28T05:41:24.363Z,7.60
2018-09-28T05:46:19.282Z,9.27
2018-09-28T05:51:14.125Z,10.50
2018-09-28T05:56:08.977Z,10.20
2018-09-28T06:01:08.840Z,9.93
2018-09-28T06:06:04.295Z,9.70
2018-09-28T06:10:59.152Z,9.87
2018-09-28T06:15:54.089Z,10.93
2018-09-28T06:20:49.018Z,10.80
2018-09-28T06:25:43.976Z,9.03
2018-09-28T06:30:38.782Z,10.70
2018-09-28T06:35:33.632Z,9.77
2018-09-28T06:40:28.437Z,9.80
2018-09-28T06:45:23.295Z,9.57
2018-09-28T06:50:18.166Z,9.60
2018-09-28T06:55:13.001Z,11.50
2018-09-28T07:00:09.347Z,10.77
2018-09-28T07:05:05.260Z,11.60
2018-09-28T07:10:00.136Z,10.13
2018-09-28T07:14:55.034Z,11.47
2018-09-28T07:19:49.951Z,12.57
2018-09-28T07:24:44.859Z,12.13
2018-09-28T07:29:39.701Z,13.03
2018-09-28T07:34:34.539Z,11.67
2018-09-28T07:39:29.368Z,12.50
2018-09-28T07:44:24.181Z,12.97
2018-09-28T07:49:19.233Z,11.83
2018-09-28T07:54:13.999Z,12.27
2018-09-28T07:59:08.890Z,11.93
2018-09-28T08:04:03.769Z,11.47
2018-09-28T08:08:58.680Z,11.67
2018-09-28T08:13:53.482Z,12.23
2018-09-28T08:18:50.382Z,10.97
2018-09-28T08:23:45.264Z,10.97
2018-09-28T08:28:41.131Z,12.53
2018-09-28T08:33:36.362Z,13.40
2018-09-28T08:38:31.333Z,13.67
2018-09-28T08:43:26.194Z,12.37
2018-09-28T08:48:21.109Z,11.00
2018-09-28T08:53:15.965Z,11.03
2018-09-28T08:58:10.758Z,13.33
2018-09-28T09:03:05.620Z,12.40
2018-09-28T09:08:00.796Z,12.73
2018-09-28T09:12:55.729Z,12.93
2018-09-28T09:17:50.732Z,10.07
2018-09-28T09:22:45.514Z,9.17
2018-09-28T09:27:40.709Z,10.30
2018-09-28T09:32:35.681Z,11.17
2018-09-28T09:37:31.579Z,11.27
2018-09-28T09:42:26.612Z,9.67
2018-09-28T09:47:21.477Z,10.67
2018-09-28T09:52:16.350Z,11.27
2018-09-28T09:57:11.188Z,10.10
2018-09-28T10:02:11.310Z,10.43
2018-09-28T10:07:06.326Z,10.63
2018-09-28T10:12:01.297Z,10.83
2018-09-28T10:16:58.649Z,10.33
2018-09-28T10:21:53.479Z,12.47
2018-09-28T10:26:48.372Z,10.20
2018-09-28T10:31:43.183Z,12.50
2018-09-28T10:36:38.031Z,11.23
2018-09-28T10:41:32.848Z,9.60
2018-09-28T10:46:27.722Z,10.60
2018-09-28T10:51:22.647Z,11.97
2018-09-28T10:56:17.501Z,10.87
2018-09-28T11:01:12.379Z,9.20
2018-09-28T11:06:07.661Z,9.30
2018-09-28T11:11:02.914Z,7.60
2018-09-28T11:15:57.874Z,8.67
2018-09-28T11:20:53.943Z,7.07
2018-09-28T11:25:48.835Z,6.83
2018-09-28T11:30:43.806Z,6.20
2018-09-28T11:35:38.656Z,5.33
2018-09-28T11:40:33.503Z,5.80
2018-09-28T11:45:28.477Z,4.57
2018-09-28T11:50:23.167Z,4.33
2018-09-28T11:55:17.997Z,4.20
2018-09-28T12:00:13.262Z,4.40
2018-09-28T12:05:08.215Z,4.17
2018-09-28T12:10:03.156Z,4.00
2018-09-28T12:14:58.187Z,3.77
2018-09-28T12:19:53.075Z,3.63
2018-09-28T12:24:48.013Z,3.43
2018-09-28T12:29:42.907Z,3.60
2018-09-28T12:34:37.908Z,3.60
2018-09-28T12:39:33.023Z,4.00
2018-09-28T12:44:28.013Z,3.60
2018-09-28T12:49:22.914Z,3.03
2018-09-28T12:54:17.762Z,2.97
2018-09-28T12:59:13.438Z,2.53
2018-09-28T13:04:12.337Z,2.37
2018-09-28T13:09:08.377Z,1.87
2018-09-28T13:14:03.633Z,2.60
2018-09-28T13:18:58.654Z,2.20
2018-09-28T13:23:53.585Z,2.47
2018-09-28T13:28:48.438Z,2.57
2018-09-28T13:33:43.248Z,2.67
2018-09-28T13:38:38.283Z,2.97
2018-09-28T13:43:32.888Z,2.70
2018-09-28T13:48:27.780Z,2.60
2018-09-28T13:53:22.644Z,2.60
2018-09-28T13:58:18.199Z,2.70
2018-09-28T14:03:13.046Z,2.60
2018-09-28T14:08:08.021Z,2.40
2018-09-28T14:13:02.821Z,2.67
2018-09-28T14:17:57.660Z,2.50
2018-09-28T14:22:52.489Z,2.27
2018-09-28T14:27:48.387Z,2.27
2018-09-28T14:32:43.972Z,2.70
2018-09-28T14:37:38.791Z,2.50
2018-09-28T14:42:33.617Z,2.80
2018-09-28T14:47:28.524Z,2.83
2018-09-28T14:52:23.464Z,3.27
2018-09-28T14:57:18.296Z,3.00
2018-09-28T15:02:13.249Z,3.20
2018-09-28T15:07:08.381Z,2.73
2018-09-28T15:12:03.298Z,2.70
2018-09-28T15:16:58.132Z,2.67
2018-09-28T15:21:53.210Z,2.83
2018-09-28T15:26:51.884Z,2.90
2018-09-28T15:31:50.026Z,2.70
2018-09-28T15:36:48.424Z,2.70
2018-09-28T15:41:45.876Z,2.67
2018-09-28T15:46:40.912Z,3.03
2018-09-28T15:51:40.770Z,3.20
2018-09-28T15:56:35.897Z,3.10
2018-09-28T16:01:30.812Z,3.33
2018-09-28T16:06:28.689Z,3.50
2018-09-28T16:11:24.585Z,3.07
2018-09-28T16:16:21.139Z,3.60
2018-09-28T16:21:17.736Z,3.13
2018-09-28T16:26:12.710Z,3.17
2018-09-28T16:31:07.860Z,3.23
2018-09-28T16:36:03.169Z,3.33
2018-09-28T16:40:57.963Z,3.33
2018-09-28T16:45:52.831Z,3.60
2018-09-28T16:50:47.697Z,3.30
2018-09-28T16:55:42.549Z,3.50
2018-09-28T17:00:37.891Z,3.70
2018-09-28T17:05:32.875Z,4.20
2018-09-28T17:10:27.758Z,4.10
2018-09-28T17:15:22.685Z,4.90
2018-09-28T17:20:17.579Z,4.97
2018-09-28T17:25:12.617Z,5.20
2018-09-28T17:30:08.423Z,4.73
2018-09-28T17:35:04.045Z,5.10
2018-09-28T17:40:00.145Z,4.97
2018-09-28T17:44:55.372Z,4.77
2018-09-28T17:49:51.905Z,4.53
2018-09-28T17:54:47.029Z,4.80
2018-09-28T17:59:42.378Z,4.90
2018-09-28T18:04:40.059Z,4.93
2018-09-28T18:09:35.639Z,3.90
2018-09-28T18:14:31.082Z,3.50
2018-09-28T18:19:26.284Z,3.00
2018-09-28T18:24:23.920Z,3.67
2018-09-28T18:29:20.282Z,2.83
2018-09-28T18:36:51.551Z,3.07
2018-09-28T18:41:50.355Z,3.23
2018-09-28T18:46:46.942Z,2.80
2018-09-28T18:51:42.311Z,3.27
2018-09-28T18:56:38.448Z,2.90
2018-09-28T19:01:36.554Z,2.73
2018-09-28T19:06:34.997Z,2.60
2018-09-28T19:11:32.897Z,3.17
2018-09-28T19:16:27.811Z,3.13
2018-09-28T19:21:23.275Z,3.33
2018-09-28T19:26:18.270Z,3.17
2018-09-28T19:31:13.239Z,3.50
2018-09-28T19:36:08.320Z,3.17
2018-09-28T19:41:05.462Z,2.87
2018-09-28T19:46:00.379Z,3.30
2018-09-28T19:50:55.310Z,3.20
2018-09-28T19:55:50.305Z,3.70
2018-09-28T20:00:45.526Z,4.40
2018-09-28T20:05:40.417Z,4.50
2018-09-28T20:10:35.383Z,3.97
2018-09-28T20:15:30.271Z,3.73
2018-09-28T20:20:25.765Z,4.07
2018-09-28T20:25:20.785Z,4.30
2018-09-28T20:30:15.671Z,4.80
2018-09-28T20:35:11.717Z,4.37
2018-09-28T20:40:06.720Z,3.90
2018-09-28T20:45:01.792Z,4.00
2018-09-28T20:49:57.013Z,4.57
2018-09-28T20:54:51.944Z,4.90
2018-09-28T20:59:46.822Z,5.13
2018-09-28T21:04:41.649Z,5.07
2018-09-28T21:09:36.522Z,5.60
2018-09-28T21:14:31.405Z,5.87
2018-09-28T21:19:26.265Z,7.10
2018-09-28T21:24:21.386Z,7.50
2018-09-28T21:29:16.243Z,7.90
2018-09-28T21:34:11.069Z,7.53
2018-09-28T21:39:08.234Z,7.33
2018-09-28T21:44:03.089Z,7.03
2018-09-28T21:48:58.088Z,6.80
2018-09-28T21:53:52.940Z,6.13
2018-09-28T21:58:47.762Z,5.53
2018-09-28T22:03:42.596Z,5.77
2018-09-28T22:08:37.521Z,5.53
2018-09-28T22:13:32.393Z,6.20
2018-09-28T22:18:27.201Z,6.30
2018-09-28T22:23:22.062Z,6.07
2018-09-28T22:28:17.044Z,5.93
2018-09-28T22:33:11.881Z,6.73
2018-09-28T22:38:06.736Z,5.80
2018-09-28T22:43:01.657Z,5.47
2018-09-28T22:47:56.444Z,5.10
2018-09-28T22:52:51.342Z,5.47
2018-09-28T22:57:46.199Z,4.67
2018-09-28T23:02:41.018Z,4.93
2018-09-28T23:07:35.859Z,5.53
2018-09-28T23:12:30.741Z,4.80
2018-09-28T23:17:26.251Z,5.17
2018-09-28T23:22:21.127Z,5.80
2018-09-28T23:27:15.923Z,5.40
2018-09-28T23:32:10.701Z,4.60
2018-09-28T23:37:05.617Z,5.10
2018-09-28T23:42:00.470Z,5.13
2018-09-28T23:46:55.342Z,4.80
2018-09-28T23:51:51.567Z,5.40
2018-09-28T23:56:46.604Z,4.67
